Startpagina
METAR-TAF:

METAR-TAF

Vliegvelden :

Le Luc, Frankrijk

breedte: 43-23N, lengte: 006-23E, hoogte: 80 m

Actueel weer

Dit bericht is 18 minuten geleden gemaakt, om 00:30 UTC
Wind 2 kt uit het oostzuidoosten
Temperatuur 4°C
Vochtigheid 100%
Druk 1016 hPa
Zicht: 0150 m
mist

METAR: LFMC 200030Z AUTO 12002KT 0150 FG ////// 04/04 Q1016

Tijdstip: 02:48 (00:48 UTC)


TAF: ontbreekt

Waarnemingen en weersverwachtingen van meer dan 4000 vliegvelden (METAR en TAF).

De beschikbare stations zijn de gele en rode punten op de kaart.

Ga met uw muis naar het station om de naam te zien.

Klik dan om waarnemingen en weersverwachtingen te zien.

kaart wijzigen: klik op de groene knoppen met een zwart kruis om in te zoomen, op de groene knop met een streepje om uit te zoomen of op de groene pijlen voor aangrenzende kaarten.


METAR-TAF: